Time;durP1;ratioP1;P1;durP2;ratioP2;P2;SDS_P1;SDS_P2;PMS_P1;PMS_P2;Temp;Humidity;BMP_temperature;BMP_pressure;BME280_temperature;BME280_humidity;BME280_pressure;Samples;Min_cycle;Max_cycle;Signal;HPM_P1;HPM_P2
2022/04/01 00:01:28;;;;;;;36.72;7.45;;;;;;;15.08;69.00;98519.34;5080800;28;20325;-76
2022/04/01 00:03:53;;;;;;;34.28;7.20;;;;;;;15.60;67.19;98496.63;5082118;28;20346;-76
2022/04/01 00:06:19;;;;;;;36.33;6.85;;;;;;;15.55;66.52;98515.94;5079037;28;20322;-74
2022/04/01 00:08:44;;;;;;;37.45;7.43;;;;;;;15.44;67.27;98545.22;5081689;28;20309;-76
2022/04/01 00:11:10;;;;;;;36.67;5.72;;;;;;;15.53;66.64;98498.53;5081654;28;20398;-76
2022/04/01 00:13:35;;;;;;;40.42;6.55;;;;;;;15.48;65.65;98499.22;5080858;28;20083;-76
2022/04/01 00:16:01;;;;;;;31.73;6.70;;;;;;;15.51;65.46;98490.75;5081198;28;20032;-79
2022/04/01 00:18:27;;;;;;;38.83;6.45;;;;;;;15.30;65.91;98425.34;5079030;28;20036;-76
2022/04/01 00:20:52;;;;;;;37.80;7.40;;;;;;;15.44;64.53;98436.66;5080986;28;20044;-74
2022/04/01 00:23:17;;;;;;;35.53;6.55;;;;;;;15.34;66.54;98441.72;5081783;28;20040;-74
2022/04/01 00:25:43;;;;;;;33.72;6.28;;;;;;;15.61;65.01;98408.38;5080701;28;20052;-76
2022/04/01 00:28:10;;;;;;;31.45;6.57;;;;;;;15.60;62.91;98390.75;5080937;28;20247;-76
2022/04/01 00:30:38;;;;;;;38.30;6.63;;;;;;;15.63;63.35;98397.50;5081151;28;20060;-73
2022/04/01 00:33:05;;;;;;;39.92;7.10;;;;;;;15.47;62.96;98396.22;5080623;28;20213;-75
2022/04/01 00:35:32;;;;;;;28.05;5.47;;;;;;;15.74;62.68;98403.91;5081091;28;20036;-74
2022/04/01 00:37:57;;;;;;;33.13;7.07;;;;;;;15.56;63.86;98356.69;5081492;28;20020;-74
2022/04/01 00:40:23;;;;;;;33.15;7.25;;;;;;;15.71;63.97;98332.31;5081320;28;20032;-77
2022/04/01 00:42:49;;;;;;;30.85;7.07;;;;;;;15.22;66.06;98352.84;5080461;28;20070;-76
2022/04/01 00:45:16;;;;;;;32.22;8.85;;;;;;;15.42;65.64;98358.72;5080507;28;20359;-77
2022/04/01 00:47:42;;;;;;;31.00;7.05;;;;;;;15.54;64.45;98374.78;5081150;28;20032;-75
2022/04/01 00:50:08;;;;;;;31.50;6.22;;;;;;;15.87;62.04;98337.78;5077959;28;20039;-74
2022/04/01 00:52:36;;;;;;;33.03;6.53;;;;;;;15.84;62.40;98350.78;5078842;28;20225;-74
2022/04/01 00:55:04;;;;;;;30.85;5.35;;;;;;;15.86;62.20;98343.34;5080496;28;20032;-74
2022/04/01 00:57:31;;;;;;;43.58;6.60;;;;;;;15.75;63.03;98342.28;5080118;28;20063;-74
2022/04/01 00:59:56;;;;;;;27.65;6.50;;;;;;;15.57;64.35;98324.47;5076645;28;20091;-79
2022/04/01 01:02:22;;;;;;;29.02;6.55;;;;;;;15.57;64.29;98350.31;5080919;28;20051;-74
2022/04/01 01:04:47;;;;;;;36.13;8.60;;;;;;;15.17;66.29;98328.72;5080011;28;20081;-74
2022/04/01 01:07:14;;;;;;;34.85;6.47;;;;;;;15.20;66.27;98261.59;5081129;28;20040;-75
2022/04/01 01:09:40;;;;;;;28.25;5.75;;;;;;;15.06;65.95;98265.50;5079730;28;21448;-74
2022/04/01 01:12:07;;;;;;;25.10;5.70;;;;;;;15.14;65.55;98292.66;5081035;28;20038;-76
2022/04/01 01:14:35;;;;;;;30.65;5.90;;;;;;;15.10;66.46;98312.81;5079431;28;20129;-76
2022/04/01 01:17:02;;;;;;;34.65;6.10;;;;;;;15.02;67.24;98225.16;5078799;28;20108;-76
2022/04/01 01:19:30;;;;;;;36.85;6.13;;;;;;;14.78;68.17;98309.53;5079449;28;20067;-75
2022/04/01 01:21:56;;;;;;;38.85;7.20;;;;;;;14.75;68.46;98317.97;5079490;28;20095;-76
2022/04/01 01:24:39;;;;;;;26.90;5.72;;;;;;;15.03;64.65;98328.09;5079690;28;20052;-74
2022/04/01 01:27:06;;;;;;;28.67;5.07;;;;;;;15.47;62.32;98332.19;5079505;28;21450;-74
2022/04/01 01:29:32;;;;;;;34.25;6.60;;;;;;;15.71;60.14;98345.66;5079140;28;20230;-76
2022/04/01 01:32:04;;;;;;;30.77;5.90;;;;;;;15.98;58.87;98330.84;5080486;28;20031;-74
2022/04/01 01:34:33;;;;;;;34.88;6.40;;;;;;;16.03;58.05;98309.59;5079968;28;20044;-74
2022/04/01 01:37:00;;;;;;;28.05;4.43;;;;;;;16.05;57.96;98331.53;5079340;28;20070;-76
2022/04/01 01:39:26;;;;;;;33.80;5.93;;;;;;;16.04;58.23;98345.94;5077330;28;20079;-76
2022/04/01 01:41:53;;;;;;;36.30;5.18;;;;;;;16.05;58.60;98374.25;5079290;28;20318;-75
2022/04/01 01:44:20;;;;;;;39.25;6.50;;;;;;;15.69;59.39;98348.53;5076521;28;20338;-76
2022/04/01 01:46:47;;;;;;;32.08;5.60;;;;;;;15.94;58.13;98383.88;5079678;28;20027;-76
2022/04/01 01:49:13;;;;;;;33.20;5.63;;;;;;;15.96;58.55;98372.97;5079307;28;20046;-76
2022/04/01 01:54:43;;;;;;;42.38;7.95;;;;;;;15.72;61.58;98364.09;5080139;28;20214;-78
2022/04/01 01:57:09;;;;;;;31.73;6.70;;;;;;;15.11;64.04;98316.28;5078939;28;20035;-73
2022/04/01 01:59:35;;;;;;;36.70;7.45;;;;;;;15.11;64.91;98341.09;5078516;28;20037;-74
2022/04/01 02:02:05;;;;;;;45.35;8.13;;;;;;;15.29;63.91;98361.56;5079693;28;20067;-76
2022/04/01 02:04:34;;;;;;;36.53;6.78;;;;;;;15.63;63.13;98325.44;5078570;28;20040;-76
2022/04/01 02:06:59;;;;;;;38.25;6.10;;;;;;;15.60;62.09;98308.03;5078596;28;20028;-74
2022/04/01 02:09:25;;;;;;;46.97;7.07;;;;;;;15.72;61.87;98352.63;5079933;28;20321;-76
2022/04/01 02:11:52;;;;;;;51.58;8.68;;;;;;;15.46;62.96;98265.72;5076724;28;20024;-74
2022/04/01 02:14:17;;;;;;;39.10;6.47;;;;;;;15.37;63.13;98269.78;5078704;28;20021;-76
2022/04/01 02:16:43;;;;;;;40.42;6.95;;;;;;;15.14;64.72;98343.31;5079173;28;20357;-76
2022/04/01 02:19:10;;;;;;;34.88;6.78;;;;;;;15.30;64.39;98312.53;5078193;28;20036;-74
2022/04/01 02:21:36;;;;;;;28.88;6.25;;;;;;;15.31;64.00;98280.31;5078663;28;20032;-74
2022/04/01 02:24:06;;;;;;;33.03;6.97;;;;;;;15.51;62.98;98298.69;5079278;28;20227;-79
2022/04/01 02:26:31;;;;;;;46.30;7.82;;;;;;;15.46;63.56;98305.75;5077008;28;20040;-76
2022/04/01 02:28:59;;;;;;;34.42;7.10;;;;;;;15.46;63.00;98247.88;5079490;28;20264;-74
2022/04/01 02:31:24;;;;;;;46.65;7.43;;;;;;;15.04;64.98;98241.75;5076770;28;20050;-76
2022/04/01 02:33:50;;;;;;;35.38;7.70;;;;;;;15.01;65.48;98300.84;5078548;28;20052;-74
2022/04/01 02:36:15;;;;;;;46.38;7.95;;;;;;;15.15;63.69;98299.63;5078811;28;20333;-75
2022/04/01 02:38:41;;;;;;;34.28;7.15;;;;;;;15.22;62.54;98279.00;5078234;28;20040;-76
2022/04/01 02:41:11;;;;;;;48.33;6.75;;;;;;;15.29;63.04;98295.72;5079037;28;20040;-76
2022/04/01 02:43:37;;;;;;;38.67;7.95;;;;;;;15.37;63.05;98310.59;5076314;28;20033;-74
2022/04/01 02:46:05;;;;;;;36.72;6.78;;;;;;;14.91;64.44;98319.22;5078660;28;20025;-74
2022/04/01 02:48:31;;;;;;;39.90;6.57;;;;;;;14.78;64.85;98290.06;5078724;28;20235;-76
2022/04/01 02:50:56;;;;;;;39.22;6.85;;;;;;;14.73;65.52;98290.75;5079193;28;20279;-74
2022/04/01 02:53:22;;;;;;;35.78;5.88;;;;;;;15.06;63.71;98310.81;5078144;28;20040;-76
2022/04/01 02:55:47;;;;;;;32.63;6.22;;;;;;;15.14;63.56;98318.50;5079011;28;20040;-76
2022/04/01 02:58:13;;;;;;;39.92;6.57;;;;;;;15.11;63.94;98310.97;5078356;28;20032;-74
2022/04/01 03:00:39;;;;;;;40.35;7.22;;;;;;;15.15;64.11;98307.63;5078298;28;20199;-74
2022/04/01 03:03:07;;;;;;;38.90;6.80;;;;;;;15.03;65.14;98312.09;5079076;28;20229;-79
2022/04/01 03:05:33;;;;;;;37.78;7.45;;;;;;;14.77;66.90;98323.91;5076044;28;20035;-73
2022/04/01 03:08:00;;;;;;;44.78;7.72;;;;;;;14.74;66.68;98352.84;5078344;28;20176;-76
2022/04/01 03:10:26;;;;;;;46.58;8.00;;;;;;;14.83;66.70;98359.50;5078693;28;20048;-74
2022/04/01 03:12:52;;;;;;;45.13;7.47;;;;;;;14.89;66.21;98350.63;5077914;28;20029;-75
2022/04/01 03:15:18;;;;;;;45.35;7.53;;;;;;;14.80;66.90;98338.63;5078578;28;20047;-76
2022/04/01 03:17:43;;;;;;;39.47;7.85;;;;;;;14.73;67.15;98346.69;5078174;28;20187;-74
2022/04/01 03:20:13;;;;;;;39.35;8.05;;;;;;;14.65;67.43;98352.31;5077655;28;20055;-75
2022/04/01 03:22:43;;;;;;;39.90;8.93;;;;;;;14.68;67.25;98349.22;5078877;28;20028;-76
2022/04/01 03:25:18;;;;;;;36.35;6.60;;;;;;;14.87;66.23;98361.50;5072330;28;20242;-74
2022/04/01 03:27:44;;;;;;;40.30;8.63;;;;;;;14.79;66.61;98383.09;5081718;28;20042;-76
2022/04/01 03:30:10;;;;;;;34.53;6.93;;;;;;;14.84;66.36;98353.94;5082614;28;20024;-76
2022/04/01 03:32:37;;;;;;;37.38;7.55;;;;;;;14.98;65.64;98351.94;5082834;28;20143;-74
2022/04/01 03:35:07;;;;;;;51.20;7.38;;;;;;;14.81;66.37;98369.56;5081637;28;20781;-74
2022/04/01 03:37:33;;;;;;;41.10;7.22;;;;;;;14.69;67.27;98358.84;5078849;28;20032;-74
2022/04/01 03:40:00;;;;;;;38.28;8.20;;;;;;;14.80;65.76;98335.97;5082361;28;20044;-74
2022/04/01 03:42:30;;;;;;;42.47;8.57;;;;;;;14.73;65.96;98341.38;5081363;28;20044;-79
2022/04/01 03:44:56;;;;;;;32.83;8.40;;;;;;;14.67;66.18;98343.06;5095378;28;20302;-79
2022/04/01 03:47:26;;;;;;;47.35;8.35;;;;;;;14.55;66.27;98326.16;5081235;28;20043;-75
2022/04/01 03:49:58;;;;;;;48.97;8.10;;;;;;;14.38;67.24;98346.41;5079428;28;20028;-74
2022/04/01 03:52:24;;;;;;;51.33;7.90;;;;;;;14.30;66.91;98326.19;5081980;28;20044;-76
2022/04/01 03:54:54;;;;;;;51.03;9.05;;;;;;;14.53;66.32;98338.09;5080864;28;20044;-74
2022/04/01 03:57:31;;;;;;;53.88;10.13;;;;;;;14.30;67.44;98336.03;5081385;28;20379;-74
2022/04/01 03:59:58;;;;;;;57.58;9.93;;;;;;;14.18;67.64;98340.44;5075188;28;20037;-74
2022/04/01 04:02:24;;;;;;;54.10;9.23;;;;;;;14.21;67.65;98343.50;5081124;28;20040;-73
2022/04/01 04:04:53;;;;;;;49.17;8.68;;;;;;;14.48;66.50;98351.25;5081127;28;20044;-76
2022/04/01 04:07:19;;;;;;;45.47;9.45;;;;;;;14.25;67.31;98336.69;5081113;28;20039;-74
2022/04/01 04:09:45;;;;;;;45.63;8.13;;;;;;;14.30;66.97;98331.53;5080858;28;20223;-74
2022/04/01 04:12:13;;;;;;;57.60;11.15;;;;;;;14.31;66.92;98340.31;5080848;28;20036;-79
2022/04/01 04:14:42;;;;;;;49.20;8.63;;;;;;;14.33;66.91;98333.75;5080826;28;20052;-74
2022/04/01 04:17:14;;;;;;;55.13;9.00;;;;;;;14.20;67.13;98311.75;5081137;28;20025;-74
2022/04/01 04:19:41;;;;;;;52.70;9.38;;;;;;;14.19;67.13;98326.09;5081443;28;20086;-73
2022/04/01 04:22:14;;;;;;;57.30;9.05;;;;;;;14.25;67.35;98346.53;5080934;28;20036;-76
2022/04/01 04:24:49;;;;;;;60.42;8.38;;;;;;;14.43;66.73;98345.78;5079618;28;20086;-76
2022/04/01 04:27:17;;;;;;;57.47;10.05;;;;;;;14.41;66.47;98332.66;5078141;28;20274;-76
2022/04/01 04:29:51;;;;;;;61.28;9.43;;;;;;;14.17;67.85;98334.31;5080685;28;20036;-75
2022/04/01 04:32:33;;;;;;;54.35;10.10;;;;;;;14.12;68.01;98333.34;5081567;28;20082;-76
2022/04/01 04:35:04;;;;;;;60.60;10.10;;;;;;;13.98;68.74;98345.97;5080060;28;20234;-76
2022/04/01 04:37:32;;;;;;;55.17;9.25;;;;;;;14.09;67.80;98361.22;5080928;28;20050;-73
2022/04/01 04:39:59;;;;;;;71.55;12.73;;;;;;;14.02;68.24;98355.13;5080660;28;20318;-79
2022/04/01 04:42:27;;;;;;;60.05;10.90;;;;;;;13.85;68.45;98346.88;5080371;28;20052;-78
2022/04/01 04:44:53;;;;;;;70.55;11.93;;;;;;;13.83;68.80;98358.78;5080041;28;20914;-76
2022/04/01 04:47:28;;;;;;;45.63;8.57;;;;;;;13.72;68.19;98323.03;5080134;28;20234;-74
2022/04/01 04:49:57;;;;;;;50.95;10.60;;;;;;;14.10;68.00;98340.72;5077788;28;20036;-75
2022/04/01 04:52:28;;;;;;;57.08;9.85;;;;;;;13.87;69.09;98339.50;5080978;28;20043;-74
2022/04/01 04:54:55;;;;;;;55.35;9.13;;;;;;;13.97;68.85;98345.13;5080035;28;20320;-73
2022/04/01 04:57:21;;;;;;;52.20;10.35;;;;;;;13.91;68.80;98330.03;5080186;28;20099;-75
2022/04/01 04:59:48;;;;;;;57.83;10.77;;;;;;;13.88;68.60;98321.69;5080514;28;20082;-75
2022/04/01 05:02:57;;;;;;;57.88;10.82;;;;;;;13.86;69.14;98334.38;5079979;28;20028;-76
2022/04/01 05:05:27;;;;;;;63.63;9.90;;;;;;;13.83;69.44;98335.63;5077342;28;20086;-73
2022/04/01 05:08:07;;;;;;;53.40;9.18;;;;;;;13.79;70.17;98338.94;5080911;28;20064;-73
2022/04/01 05:10:47;;;;;;;51.90;11.45;;;;;;;13.74;70.54;98351.06;5080774;28;20458;-76
2022/04/01 05:13:34;;;;;;;58.97;9.70;;;;;;;13.91;70.52;98345.19;5080731;28;20091;-75
2022/04/01 05:16:08;;;;;;;49.78;11.20;;;;;;;14.22;68.62;98328.34;5092173;28;20021;-73
2022/04/01 05:18:45;;;;;;;72.35;11.20;;;;;;;14.34;68.86;98338.03;5080275;28;20226;-77
2022/04/01 05:21:19;;;;;;;51.28;9.30;;;;;;;14.34;69.38;98315.91;5080327;28;20041;-75
2022/04/01 05:24:02;;;;;;;52.33;10.27;;;;;;;14.20;70.32;98322.41;5080306;28;20033;-79
2022/04/01 05:26:40;;;;;;;44.75;8.25;;;;;;;14.26;68.88;98330.34;5079714;28;20349;-76
2022/04/01 05:29:31;;;;;;;61.50;8.50;;;;;;;14.52;67.40;98318.63;5079306;28;20032;-76
2022/04/01 05:32:09;;;;;;;50.80;8.05;;;;;;;14.77;67.43;98326.56;5077892;28;20028;-72
2022/04/01 05:34:45;;;;;;;60.47;10.18;;;;;;;14.84;67.46;98324.63;5077485;28;20036;-74
2022/04/01 05:37:13;;;;;;;72.93;11.40;;;;;;;14.89;66.16;98313.31;5077280;28;20044;-75
2022/04/01 05:39:42;;;;;;;58.00;9.05;;;;;;;15.13;64.99;98315.03;5082020;28;20261;-73
2022/04/01 05:42:08;;;;;;;53.67;9.88;;;;;;;15.25;65.45;98299.88;5079115;28;20020;-75
2022/04/01 05:44:35;;;;;;;83.32;11.40;;;;;;;15.45;66.12;98312.94;5080127;28;20035;-74
2022/04/01 05:47:02;;;;;;;58.35;10.43;;;;;;;15.65;64.65;98318.03;5080696;28;20028;-73
2022/04/01 05:49:28;;;;;;;63.00;9.77;;;;;;;15.86;64.94;98314.00;5078735;28;20040;-73
2022/04/01 05:51:55;;;;;;;58.90;9.90;;;;;;;15.97;64.56;98310.53;5077935;28;20031;-73
2022/04/01 05:54:22;;;;;;;47.05;10.30;;;;;;;16.18;63.83;98317.13;5079272;28;20036;-75
2022/04/01 05:56:49;;;;;;;66.88;10.48;;;;;;;16.27;63.50;98297.84;5076998;28;20028;-73
2022/04/01 05:59:22;;;;;;;64.65;11.27;;;;;;;16.40;62.72;98291.47;5080856;28;20341;-76
2022/04/01 06:02:06;;;;;;;62.83;10.07;;;;;;;16.53;61.75;98301.06;5077891;28;20036;-75
2022/04/01 06:04:40;;;;;;;60.05;11.95;;;;;;;16.58;62.43;98285.16;5079466;28;20048;-73
2022/04/01 06:07:15;;;;;;;66.03;10.38;;;;;;;16.74;61.26;98284.47;5078592;28;20024;-77
2022/04/01 06:09:58;;;;;;;52.03;9.57;;;;;;;16.88;60.71;98288.50;5074519;28;20017;-73
2022/04/01 06:12:37;;;;;;;58.63;10.98;;;;;;;17.11;59.38;98289.44;5076126;28;20017;-75
2022/04/01 06:15:32;;;;;;;58.38;9.48;;;;;;;17.43;57.79;98292.44;5076130;28;20024;-75
2022/04/01 06:18:00;;;;;;;57.17;9.77;;;;;;;17.75;57.59;98298.91;5068544;28;20036;-75
2022/04/01 06:20:27;;;;;;;64.00;10.02;;;;;;;17.86;57.17;98303.38;5079162;28;20098;-73
2022/04/01 06:23:03;;;;;;;66.88;10.40;;;;;;;17.99;56.61;98301.44;5079541;28;20134;-74
2022/04/01 06:25:31;;;;;;;42.42;8.77;;;;;;;18.17;55.22;98298.47;5079561;28;20036;-75
2022/04/01 06:28:26;;;;;;;47.70;10.60;;;;;;;18.27;55.43;98271.03;5078322;28;20016;-74
2022/04/01 06:30:59;;;;;;;;;;;;;;;18.58;54.46;98301.72;5078899;28;20044;-75
2022/04/01 06:33:49;;;;;;;55.17;11.32;;;;;;;18.57;55.14;98308.13;5079711;28;19939;-76
2022/04/01 06:36:23;;;;;;;66.97;11.48;;;;;;;18.52;55.65;98285.56;5077138;28;20036;-75
2022/04/01 06:39:08;;;;;;;60.20;11.23;;;;;;;18.83;53.67;98286.00;5079185;28;20036;-76
2022/04/01 06:41:43;;;;;;;62.38;10.57;;;;;;;18.67;54.37;98281.47;5078814;28;20039;-74
2022/04/01 06:44:09;;;;;;;56.47;10.43;;;;;;;18.64;54.25;98274.75;5077270;28;20078;-73
2022/04/01 06:46:35;;;;;;;52.28;10.25;;;;;;;18.84;55.01;98268.03;5077936;28;20052;-75
2022/04/01 06:49:08;;;;;;;51.78;10.38;;;;;;;19.06;49.89;98284.91;5078652;28;20032;-79
2022/04/01 06:51:39;;;;;;;56.63;10.82;;;;;;;19.20;50.44;98290.69;5078502;28;20029;-78
2022/04/01 06:54:05;;;;;;;73.70;11.88;;;;;;;19.37;50.35;98275.28;5078907;28;20222;-76
2022/04/01 06:56:30;;;;;;;55.97;9.60;;;;;;;19.55;50.33;98287.56;5078874;28;20047;-76
2022/04/01 06:58:56;;;;;;;66.53;12.57;;;;;;;19.81;50.89;98273.31;5076475;28;20300;-76
2022/04/01 07:01:22;;;;;;;69.68;10.57;;;;;;;19.88;48.27;98246.22;5078455;28;20044;-74
2022/04/01 07:03:47;;;;;;;54.85;11.25;;;;;;;20.32;48.28;98260.19;5079736;28;20055;-77
2022/04/01 07:06:13;;;;;;;46.22;10.48;;;;;;;20.36;47.09;98251.34;5077169;28;20028;-74
2022/04/01 07:08:39;;;;;;;64.78;11.35;;;;;;;20.67;46.15;98252.31;5078412;28;20036;-77
2022/04/01 07:11:04;;;;;;;56.53;10.55;;;;;;;21.11;45.48;98260.00;5075482;28;20066;-77
2022/04/01 07:13:30;;;;;;;60.58;10.68;;;;;;;21.18;45.04;98259.72;5074591;28;20028;-74
2022/04/01 07:15:55;;;;;;;61.88;11.70;;;;;;;21.64;43.87;98250.66;5078735;28;20036;-77
2022/04/01 07:18:22;;;;;;;51.40;10.55;;;;;;;22.07;43.46;98253.88;5075806;28;20040;-77
2022/04/01 07:20:47;;;;;;;68.35;11.45;;;;;;;22.38;42.66;98243.03;5078833;28;20032;-76
2022/04/01 07:23:14;;;;;;;66.22;14.20;;;;;;;22.42;41.81;98244.09;5076044;28;20123;-75
2022/04/01 07:25:40;;;;;;;67.65;11.90;;;;;;;22.65;42.88;98245.34;5078860;28;20103;-76
2022/04/01 07:28:06;;;;;;;64.45;11.38;;;;;;;23.06;42.39;98236.00;5077703;28;20035;-76
2022/04/01 07:30:31;;;;;;;57.53;9.85;;;;;;;23.03;40.83;98233.88;5078820;28;20302;-76
2022/04/01 07:32:58;;;;;;;50.20;10.63;;;;;;;23.09;41.81;98240.84;5078120;28;20060;-77
2022/04/01 07:35:25;;;;;;;59.25;10.65;;;;;;;22.99;41.25;98234.72;5077490;28;20035;-80
2022/04/01 07:37:51;;;;;;;44.30;10.15;;;;;;;22.99;42.45;98223.91;5078634;28;20054;-80
2022/04/01 07:40:18;;;;;;;73.47;11.63;;;;;;;22.78;41.70;98223.16;5077858;28;20147;-77
2022/04/01 07:42:44;;;;;;;64.93;10.95;;;;;;;22.59;42.44;98221.09;5077410;28;20041;-74
2022/04/01 07:45:11;;;;;;;61.75;11.20;;;;;;;23.09;42.58;98219.25;5077962;28;20051;-77
2022/04/01 07:47:37;;;;;;;74.10;11.07;;;;;;;23.34;41.79;98226.38;5078169;28;20063;-77
2022/04/01 07:50:04;;;;;;;59.67;11.93;;;;;;;23.58;40.14;98223.78;5078747;28;20037;-79
2022/04/01 07:52:32;;;;;;;66.75;10.73;;;;;;;23.82;39.78;98223.81;5078885;28;20143;-74
2022/04/01 07:54:57;;;;;;;58.95;10.18;;;;;;;24.00;39.10;98204.22;5077385;28;20040;-76
2022/04/01 07:57:23;;;;;;;57.35;10.48;;;;;;;24.05;38.53;98217.66;5078160;28;20059;-77
2022/04/01 07:59:49;;;;;;;68.53;10.73;;;;;;;23.88;39.66;98222.69;5078101;28;20040;-75
2022/04/01 08:02:16;;;;;;;66.80;11.00;;;;;;;23.93;39.11;98228.06;5077406;28;20044;-75
2022/04/01 08:04:41;;;;;;;67.13;11.93;;;;;;;23.92;38.82;98228.31;5078609;28;20032;-75
2022/04/01 08:07:07;;;;;;;69.57;11.07;;;;;;;23.89;38.23;98219.69;5077394;28;20047;-76
2022/04/01 08:09:33;;;;;;;62.15;11.38;;;;;;;24.13;37.79;98221.66;5078272;28;20432;-75
2022/04/01 08:12:01;;;;;;;64.57;11.38;;;;;;;24.12;36.72;98223.53;5080244;28;20218;-77
2022/04/01 08:14:27;;;;;;;71.32;11.98;;;;;;;24.41;36.07;98222.72;5079642;28;20034;-77
2022/04/01 08:16:52;;;;;;;69.28;11.93;;;;;;;24.49;35.56;98228.28;5081639;28;20308;-76
2022/04/01 08:19:18;;;;;;;66.65;11.05;;;;;;;24.48;35.16;98239.41;5081758;28;20094;-74
2022/04/01 08:21:45;;;;;;;66.40;12.93;;;;;;;24.70;34.67;98236.16;5080686;28;20060;-74
2022/04/01 08:24:11;;;;;;;81.35;13.13;;;;;;;25.17;34.21;98240.69;5081571;28;20032;-74
2022/04/01 08:26:36;;;;;;;61.20;10.95;;;;;;;25.06;34.18;98223.78;5093368;28;20388;-81
2022/04/01 08:29:02;;;;;;;77.75;12.93;;;;;;;24.70;34.45;98204.47;5093779;28;20074;-74
2022/04/01 08:31:30;;;;;;;67.13;11.38;;;;;;;24.33;35.80;98218.75;5077777;28;20055;-75
2022/04/01 08:33:56;;;;;;;111.03;33.45;;;;;;;24.22;34.73;98221.81;5080967;28;20035;-74
2022/04/01 08:36:22;;;;;;;97.30;17.35;;;;;;;24.45;35.67;98223.75;5080879;28;20246;-77
2022/04/01 08:38:48;;;;;;;69.05;13.13;;;;;;;24.69;34.64;98205.56;5080603;28;20035;-75
2022/04/01 08:41:18;;;;;;;83.95;14.02;;;;;;;24.57;34.12;98218.72;5081622;28;20048;-75
2022/04/01 08:43:46;;;;;;;85.53;13.18;;;;;;;24.75;33.37;98207.13;5080862;28;20028;-76
2022/04/01 08:46:12;;;;;;;86.97;13.52;;;;;;;25.03;30.10;98186.47;5081389;28;20040;-75
2022/04/01 08:48:38;;;;;;;73.38;13.15;;;;;;;25.18;31.49;98200.88;5079820;28;20028;-76
2022/04/01 08:51:03;;;;;;;78.85;13.77;;;;;;;24.92;30.60;98200.38;5081066;28;20147;-75
2022/04/01 08:53:34;;;;;;;77.95;12.73;;;;;;;25.06;30.14;98210.25;5080256;28;20484;-77
2022/04/01 08:55:59;;;;;;;91.00;13.90;;;;;;;25.50;29.88;98192.75;5079956;28;20044;-75
2022/04/01 08:58:25;;;;;;;76.00;12.50;;;;;;;25.75;30.47;98199.69;5081563;28;20026;-75
2022/04/01 09:00:52;;;;;;;73.78;12.65;;;;;;;25.68;29.34;98181.09;5079889;28;20227;-75
2022/04/01 09:03:21;;;;;;;73.50;13.95;;;;;;;24.84;30.85;98174.78;5080227;28;20021;-77
2022/04/01 09:05:58;;;;;;;81.35;13.02;;;;;;;24.91;31.48;98169.81;5112476;28;20025;-77
2022/04/01 09:08:37;;;;;;;77.88;12.65;;;;;;;25.06;31.68;98182.38;5080642;28;20040;-75
2022/04/01 09:11:10;;;;;;;81.45;13.57;;;;;;;25.46;30.80;98170.06;5080939;28;20029;-76
2022/04/01 09:13:45;;;;;;;85.53;14.38;;;;;;;25.42;30.76;98158.22;5077906;28;20032;-75
2022/04/01 09:16:32;;;;;;;83.38;13.85;;;;;;;24.60;31.59;98147.78;5079864;28;20036;-74
2022/04/01 09:19:02;;;;;;;76.82;14.43;;;;;;;24.83;31.46;98149.59;5078458;28;20055;-80
2022/04/01 09:21:32;;;;;;;99.32;14.48;;;;;;;25.02;31.28;98149.66;5078337;28;20043;-76
2022/04/01 09:23:58;;;;;;;75.45;12.82;;;;;;;25.25;29.77;98134.38;5080529;28;20039;-77
2022/04/01 09:26:38;;;;;;;101.78;14.23;;;;;;;25.35;29.98;98134.22;5079406;28;20036;-75
2022/04/01 09:29:06;;;;;;;86.95;13.10;;;;;;;25.42;30.51;98137.34;5077752;28;20032;-75
2022/04/01 09:31:34;;;;;;;77.95;13.43;;;;;;;25.57;29.70;98127.34;5080804;28;20099;-73
2022/04/01 09:34:01;;;;;;;97.28;14.18;;;;;;;25.34;29.94;98132.59;5079409;28;20090;-75
2022/04/01 09:36:33;;;;;;;93.65;13.07;;;;;;;24.87;30.51;98130.88;5079166;28;20213;-77
2022/04/01 09:39:08;;;;;;;82.20;14.20;;;;;;;24.94;29.37;98127.78;5077200;28;20025;-75
2022/04/01 09:41:46;;;;;;;84.35;13.38;;;;;;;25.16;29.98;98135.34;5079300;28;20066;-76
2022/04/01 09:44:17;;;;;;;77.50;12.27;;;;;;;24.93;30.96;98118.88;5079828;28;20035;-74
2022/04/01 09:46:52;;;;;;;81.82;12.40;;;;;;;24.80;30.56;98125.03;5078779;28;20040;-77
2022/04/01 09:49:29;;;;;;;71.35;11.70;;;;;;;24.90;29.87;98130.28;5073654;28;20017;-75
2022/04/01 09:51:57;;;;;;;83.80;12.70;;;;;;;24.91;30.42;98123.78;5078621;28;20389;-77
2022/04/01 09:54:27;;;;;;;78.05;13.00;;;;;;;24.87;31.33;98111.13;5080192;28;20044;-77
2022/04/01 09:56:55;;;;;;;84.20;12.70;;;;;;;24.63;30.55;98112.00;5112971;28;20032;-76
2022/04/01 09:59:22;;;;;;;84.90;13.77;;;;;;;24.51;31.15;98096.22;5080116;28;20063;-76
2022/04/01 10:01:48;;;;;;;85.28;13.50;;;;;;;24.53;30.68;98104.03;5078514;28;20036;-77
2022/04/01 10:04:14;;;;;;;102.53;12.38;;;;;;;24.29;31.20;98106.00;5077429;28;20020;-76
2022/04/01 10:06:40;;;;;;;80.60;13.43;;;;;;;23.92;32.26;98095.88;5079727;28;20027;-79
2022/04/01 10:09:08;;;;;;;78.03;11.50;;;;;;;23.80;31.59;98097.06;5078739;28;20031;-80
2022/04/01 10:11:36;;;;;;;73.53;12.80;;;;;;;23.75;31.64;98094.44;5077729;28;20044;-74
2022/04/01 10:14:08;;;;;;;61.25;12.38;;;;;;;23.80;32.74;98097.06;5078904;28;20055;-76
2022/04/01 10:16:35;;;;;;;83.05;12.48;;;;;;;23.92;31.71;98085.84;5078406;28;20032;-75
2022/04/01 10:19:06;;;;;;;76.72;13.65;;;;;;;24.01;31.42;98081.44;5078410;28;20064;-75
2022/04/01 10:21:34;;;;;;;80.68;13.38;;;;;;;24.07;30.98;98074.88;5078603;28;20147;-75
2022/04/01 10:24:23;;;;;;;76.22;12.20;;;;;;;24.18;31.54;98079.06;5078272;28;20056;-77
2022/04/01 10:27:23;;;;;;;78.00;12.90;;;;;;;24.34;31.59;98078.88;5078896;28;20074;-76
2022/04/01 10:29:49;;;;;;;100.15;13.35;;;;;;;24.60;31.52;98063.88;5053610;28;20090;-75
2022/04/01 10:32:24;;;;;;;73.57;12.93;;;;;;;24.68;30.47;98067.84;5078378;28;20028;-75
2022/04/01 10:34:50;;;;;;;79.75;12.98;;;;;;;24.63;31.25;98057.09;5068195;28;20312;-77
2022/04/01 10:37:17;;;;;;;64.90;11.07;;;;;;;24.50;31.13;98059.44;5076328;28;20020;-75
2022/04/01 10:40:04;;;;;;;86.07;16.35;;;;;;;24.61;31.53;98041.16;5079657;28;20203;-77
2022/04/01 10:42:38;;;;;;;73.55;11.32;;;;;;;24.15;30.76;98047.19;5078463;28;20036;-75
2022/04/01 10:45:08;;;;;;;82.55;12.20;;;;;;;24.38;31.94;98037.44;5079104;28;20078;-76
2022/04/01 10:54:03;;;;;;;79.30;13.20;;;;;;;24.57;30.52;98025.78;5076062;28;20042;-75
2022/04/01 10:56:30;;;;;;;84.55;13.38;;;;;;;24.62;30.12;98036.53;5078801;28;20051;-75
2022/04/01 10:59:22;;;;;;;77.95;12.65;;;;;;;24.69;30.31;98034.25;5092054;28;20032;-81
2022/04/01 11:01:53;;;;;;;82.40;14.15;;;;;;;24.52;30.90;98032.88;5078654;28;20216;-74
2022/04/01 11:04:20;;;;;;;78.50;12.90;;;;;;;24.46;30.40;98036.78;5072801;28;20040;-75
2022/04/01 11:06:52;;;;;;;69.50;11.85;;;;;;;24.38;30.14;98021.19;5079078;28;20104;-74
2022/04/01 11:09:40;;;;;;;75.53;12.90;;;;;;;24.50;30.01;98026.97;5069692;28;20036;-76
2022/04/01 11:12:23;;;;;;;78.38;12.98;;;;;;;24.42;29.78;98024.13;5078989;28;20033;-76
2022/04/01 11:14:55;;;;;;;90.40;13.23;;;;;;;24.56;29.47;98018.78;5077854;28;20028;-77
2022/04/01 11:17:22;;;;;;;71.07;11.43;;;;;;;24.44;28.96;97997.56;5078293;28;20281;-76
2022/04/01 11:20:12;;;;;;;91.90;13.13;;;;;;;24.90;29.46;98010.34;5077496;28;20036;-77
2022/04/01 11:22:48;;;;;;;70.88;11.82;;;;;;;24.88;30.10;98001.72;5076370;28;20040;-75
2022/04/01 11:25:33;;;;;;;85.25;13.93;;;;;;;25.00;29.54;97978.56;5078428;28;20042;-77
2022/04/01 11:27:59;;;;;;;71.65;12.25;;;;;;;25.12;30.35;97988.91;5074085;28;20241;-75
2022/04/01 11:30:28;;;;;;;84.35;13.40;;;;;;;25.11;29.32;97988.09;5078308;28;20099;-76
2022/04/01 11:32:59;;;;;;;77.57;12.63;;;;;;;24.97;29.68;97976.44;5077896;28;20056;-75
2022/04/01 11:35:31;;;;;;;85.13;15.07;;;;;;;25.23;30.65;97965.13;5078925;28;20321;-75
2022/04/01 11:37:58;;;;;;;87.65;14.07;;;;;;;25.23;30.56;97971.34;5079381;28;20054;-75
2022/04/01 11:40:30;;;;;;;82.25;14.18;;;;;;;25.38;29.61;97975.66;5078023;28;20048;-76
2022/04/01 11:43:03;;;;;;;79.63;13.18;;;;;;;25.12;30.49;97964.53;5076870;28;20028;-75